In Rescue
 
Open Full Screen Window  High Contrast Mode
Wind Gusting 00 knots
07
January 20, 2021 5:22 PM CST
Weather Information
Wind Direction
  260 °
Wind Speed
  07 kt (8 mph)
Wind Gust
  00 kt (0 mph)
Altimeter
29.59 in
Visibility
10 SM
Temperature
02° C
36° F
Dewpoint
-03° C
27° F
Humidity
70%
1hr Rain Fall
00.00 in.
24hr Rain Fall
00.00 in.
Sky Condition
Clear
VFR

METAR KRGK 202322Z AUTO 26007KT 10SM CLR 02/M03 A2959 RMK AO2

FAA Disclaimer: The data displayed is for advisory purposes only and is not to be used for flight planning or operations.